Time;durP1;ratioP1;P1;durP2;ratioP2;P2;SDS_P1;SDS_P2;PMS_P1;PMS_P2;Temp;Humidity;BMP_temperature;BMP_pressure;BME280_temperature;BME280_humidity;BME280_pressure;Samples;Min_cycle;Max_cycle;Signal;HPM_P1;HPM_P2
2023/06/04 00:00:51;;;;;;;4.65;2.63;;;;;;;12.17;52.12;102221.66;5034653;28;20030;-71
2023/06/04 00:03:16;;;;;;;4.38;2.40;;;;;;;12.08;52.27;102227.28;5016638;28;20025;-70
2023/06/04 00:05:41;;;;;;;6.43;3.30;;;;;;;12.09;53.06;102226.34;5015972;28;20032;-72
2023/06/04 00:08:07;;;;;;;8.55;3.42;;;;;;;11.95;53.22;102221.47;5015757;28;20098;-72
2023/06/04 00:10:33;;;;;;;7.82;2.88;;;;;;;12.09;53.29;102215.75;5033339;28;20030;-72
2023/06/04 00:12:59;;;;;;;3.63;2.72;;;;;;;12.10;53.24;102226.28;5016595;28;20108;-71
2023/06/04 00:15:25;;;;;;;6.00;2.45;;;;;;;12.02;52.59;102224.84;5016284;28;20033;-72
2023/06/04 00:17:50;;;;;;;5.05;2.97;;;;;;;11.91;53.77;102222.50;5016499;28;20033;-72
2023/06/04 00:20:16;;;;;;;4.82;2.63;;;;;;;11.75;53.55;102219.50;5016420;28;20021;-73
2023/06/04 00:22:41;;;;;;;4.97;2.70;;;;;;;11.80;53.23;102220.22;4999932;28;20063;-71
2023/06/04 00:25:08;;;;;;;5.10;2.75;;;;;;;11.63;55.06;102208.34;5015799;28;20104;-71
2023/06/04 00:27:34;;;;;;;4.68;2.83;;;;;;;11.54;55.49;102219.25;5033699;28;20108;-71
2023/06/04 00:29:59;;;;;;;4.72;2.28;;;;;;;11.49;55.12;102208.81;5015929;28;20385;-72
2023/06/04 00:32:24;;;;;;;6.70;3.08;;;;;;;11.54;54.72;102210.47;5016214;28;20102;-72
2023/06/04 00:34:51;;;;;;;4.07;2.70;;;;;;;11.54;55.00;102221.91;5016684;28;20033;-72
2023/06/04 00:37:16;;;;;;;7.47;3.55;;;;;;;11.53;54.85;102222.81;5016639;28;20152;-72
2023/06/04 00:39:42;;;;;;;4.97;2.72;;;;;;;11.44;55.63;102208.09;5015790;28;20128;-72
2023/06/04 00:42:07;;;;;;;3.75;2.40;;;;;;;11.36;56.35;102210.97;5033490;28;20108;-71
2023/06/04 00:44:33;;;;;;;5.78;2.70;;;;;;;11.25;55.94;102206.91;5015738;28;20025;-72
2023/06/04 00:46:59;;;;;;;4.07;2.63;;;;;;;11.22;56.56;102207.91;5016273;28;20035;-72
2023/06/04 00:49:24;;;;;;;7.38;2.90;;;;;;;11.20;56.11;102207.94;4999314;28;20061;-71
2023/06/04 00:51:50;;;;;;;4.60;2.80;;;;;;;11.24;56.64;102208.72;5032140;28;20030;-72
2023/06/04 00:54:17;;;;;;;6.40;2.63;;;;;;;11.16;55.64;102198.34;5015885;28;20029;-72
2023/06/04 00:56:44;;;;;;;5.07;2.55;;;;;;;11.19;56.31;102214.16;5015757;28;20118;-72
2023/06/04 00:59:09;;;;;;;5.47;2.70;;;;;;;11.32;55.57;102206.69;5015718;28;20021;-72
2023/06/04 01:01:57;;;;;;;5.45;2.80;;;;;;;11.47;55.85;102217.72;5015552;28;20035;-72
2023/06/04 01:05:00;;;;;;;5.25;2.60;;;;;;;11.51;55.83;102214.94;5015803;28;20101;-72
2023/06/04 01:07:28;;;;;;;3.47;2.50;;;;;;;11.27;56.61;102207.75;4993884;28;20037;-72
2023/06/04 01:09:53;;;;;;;4.80;2.35;;;;;;;11.12;56.56;102202.00;5015972;28;20029;-72
2023/06/04 01:12:19;;;;;;;6.15;2.50;;;;;;;11.17;56.68;102207.19;5015129;28;20034;-71
2023/06/04 01:14:44;;;;;;;3.95;2.42;;;;;;;11.16;57.46;102203.66;5015789;28;20033;-71
2023/06/04 01:17:18;;;;;;;5.32;2.65;;;;;;;11.12;55.95;102194.06;5015659;28;20696;-72
2023/06/04 01:19:59;;;;;;;4.53;2.45;;;;;;;11.13;57.31;102210.84;5015695;28;20040;-71
2023/06/04 01:22:46;;;;;;;4.82;2.70;;;;;;;11.28;56.12;102206.81;4999566;28;20521;-72
2023/06/04 01:25:20;;;;;;;4.28;2.53;;;;;;;11.05;55.98;102206.63;5014641;28;20026;-72
2023/06/04 01:27:49;;;;;;;4.72;2.50;;;;;;;10.95;56.71;102205.16;5015325;28;20029;-72
2023/06/04 01:30:15;;;;;;;6.82;2.70;;;;;;;10.94;57.96;102198.13;4998695;28;20032;-73
2023/06/04 01:32:41;;;;;;;7.03;2.90;;;;;;;10.99;57.88;102206.81;5015670;28;20024;-72
2023/06/04 01:35:11;;;;;;;5.30;2.85;;;;;;;11.00;58.11;102202.38;5015089;28;20386;-72
2023/06/04 01:37:36;;;;;;;3.80;2.50;;;;;;;10.97;57.35;102197.16;5015287;28;20496;-73
2023/06/04 01:40:02;;;;;;;3.88;2.30;;;;;;;10.96;57.66;102204.22;5015446;28;20065;-72
2023/06/04 01:42:28;;;;;;;4.43;2.60;;;;;;;10.92;58.12;102206.13;4998662;28;20076;-71
2023/06/04 01:44:53;;;;;;;6.22;2.97;;;;;;;10.90;58.77;102204.41;5014593;28;20036;-72
2023/06/04 01:47:18;;;;;;;5.57;3.20;;;;;;;10.85;57.80;102198.38;5015253;28;20052;-72
2023/06/04 01:49:44;;;;;;;4.40;2.75;;;;;;;10.92;57.92;102202.59;5015572;28;20093;-71
2023/06/04 01:52:10;;;;;;;4.95;2.80;;;;;;;10.91;58.30;102200.84;5032331;28;20540;-72
2023/06/04 01:54:37;;;;;;;5.40;2.80;;;;;;;10.83;58.04;102194.91;5031922;28;20112;-72
2023/06/04 01:57:03;;;;;;;7.28;2.65;;;;;;;10.75;58.48;102197.81;5015045;28;20398;-72
2023/06/04 01:59:28;;;;;;;4.68;2.80;;;;;;;10.70;58.98;102208.50;5014726;28;20018;-71
2023/06/04 02:01:54;;;;;;;4.57;2.78;;;;;;;10.72;58.86;102205.84;5014552;28;20051;-72
2023/06/04 02:04:21;;;;;;;5.90;2.50;;;;;;;10.78;59.21;102198.56;5032062;28;20025;-72
2023/06/04 02:06:46;;;;;;;6.10;2.85;;;;;;;10.75;58.63;102203.09;5015529;28;20053;-71
2023/06/04 02:09:11;;;;;;;6.50;2.70;;;;;;;10.74;58.41;102199.56;5015207;28;20057;-72
2023/06/04 02:11:37;;;;;;;5.13;3.00;;;;;;;10.71;60.15;102197.00;5032744;28;20028;-72
2023/06/04 02:14:02;;;;;;;5.20;2.90;;;;;;;10.71;59.85;102201.47;4999765;28;20124;-73
2023/06/04 02:16:27;;;;;;;4.78;2.65;;;;;;;10.58;59.47;102185.91;5032587;28;20068;-72
2023/06/04 02:18:53;;;;;;;4.43;2.90;;;;;;;10.59;59.43;102198.22;4998498;28;20022;-72
2023/06/04 02:21:18;;;;;;;4.70;2.70;;;;;;;10.63;59.00;102204.31;5032221;28;20540;-73
2023/06/04 02:23:44;;;;;;;6.35;2.60;;;;;;;10.56;58.79;102197.47;5014406;28;20036;-72
2023/06/04 02:26:09;;;;;;;5.00;2.75;;;;;;;10.62;59.56;102213.16;5032154;28;20025;-72
2023/06/04 02:28:34;;;;;;;4.43;2.70;;;;;;;10.63;59.85;102209.59;5015303;28;20034;-71
2023/06/04 02:31:00;;;;;;;5.93;2.80;;;;;;;10.58;59.57;102207.06;5014679;28;20363;-73
2023/06/04 02:33:25;;;;;;;7.13;2.80;;;;;;;10.58;59.36;102207.06;5015424;28;20026;-73
2023/06/04 02:35:50;;;;;;;12.93;3.85;;;;;;;10.55;59.25;102201.88;5032525;28;20033;-72
2023/06/04 02:38:16;;;;;;;5.13;2.80;;;;;;;10.54;58.80;102201.94;5016046;28;20426;-72
2023/06/04 02:40:42;;;;;;;4.20;2.50;;;;;;;10.56;58.61;102198.31;5018661;28;20025;-72
2023/06/04 02:43:07;;;;;;;5.25;2.47;;;;;;;10.60;59.86;102200.00;5001255;28;20382;-71
2023/06/04 02:45:33;;;;;;;4.88;2.80;;;;;;;10.53;58.13;102202.84;5017460;28;20036;-73
2023/06/04 02:47:58;;;;;;;4.03;2.60;;;;;;;10.50;58.74;102188.78;5017470;28;20036;-72
2023/06/04 02:50:23;;;;;;;3.45;2.70;;;;;;;10.52;59.37;102195.81;5035402;28;20188;-72
2023/06/04 02:52:49;;;;;;;4.38;2.70;;;;;;;10.42;59.01;102189.88;5017395;28;20104;-71
2023/06/04 02:55:14;;;;;;;6.40;2.90;;;;;;;10.42;58.64;102203.13;5034981;28;20057;-72
2023/06/04 02:57:43;;;;;;;3.72;2.92;;;;;;;10.35;59.14;102205.91;5017572;28;20030;-72
2023/06/04 03:00:13;;;;;;;7.38;2.40;;;;;;;10.31;58.71;102192.81;5001532;28;20025;-72
2023/06/04 03:02:43;;;;;;;4.75;2.42;;;;;;;10.36;58.83;102206.78;5017797;28;20045;-72
2023/06/04 03:05:10;;;;;;;5.60;2.45;;;;;;;10.29;59.33;102197.28;5001489;28;20021;-72
2023/06/04 03:07:36;;;;;;;3.90;2.55;;;;;;;10.32;59.90;102200.69;5035354;28;20470;-71
2023/06/04 03:10:02;;;;;;;5.65;2.75;;;;;;;10.19;59.51;102189.56;5000886;28;20498;-71
2023/06/04 03:12:28;;;;;;;4.28;2.97;;;;;;;10.44;59.32;102199.53;5017623;28;20468;-72
2023/06/04 03:14:53;;;;;;;6.82;3.15;;;;;;;10.42;58.99;102190.78;5017136;28;20057;-71
2023/06/04 03:17:19;;;;;;;6.05;2.83;;;;;;;10.30;58.85;102201.66;5033569;28;20033;-71
2023/06/04 03:19:44;;;;;;;4.65;2.40;;;;;;;10.21;59.10;102193.03;5017173;28;20079;-71
2023/06/04 03:22:10;;;;;;;4.93;2.40;;;;;;;10.22;60.17;102196.56;5017588;28;20025;-71
2023/06/04 03:24:38;;;;;;;4.80;2.50;;;;;;;10.21;59.84;102195.69;5017413;28;20025;-72
2023/06/04 03:27:03;;;;;;;4.53;2.60;;;;;;;10.21;59.75;102187.75;5017299;28;20466;-71
2023/06/04 03:29:30;;;;;;;5.15;2.42;;;;;;;10.16;59.13;102176.44;5000935;28;20029;-71
2023/06/04 03:31:56;;;;;;;5.53;2.60;;;;;;;10.02;59.92;102191.78;5018087;28;20140;-71
2023/06/04 03:34:24;;;;;;;5.47;2.60;;;;;;;10.12;59.77;102193.28;5000671;28;20116;-71
2023/06/04 03:36:50;;;;;;;5.43;2.60;;;;;;;10.20;59.22;102186.00;5016871;28;20092;-72
2023/06/04 03:39:15;;;;;;;4.38;2.65;;;;;;;10.14;59.69;102191.47;5034438;28;20073;-72
2023/06/04 03:41:41;;;;;;;5.30;2.47;;;;;;;10.17;59.74;102195.81;5016846;28;20108;-71
2023/06/04 03:44:06;;;;;;;3.88;2.22;;;;;;;10.20;60.23;102188.66;4999960;28;20120;-72
2023/06/04 03:46:33;;;;;;;5.53;3.00;;;;;;;10.23;59.98;102195.66;5016025;28;20021;-72
2023/06/04 03:48:58;;;;;;;5.35;2.65;;;;;;;10.24;59.03;102191.25;5016031;28;20075;-72
2023/06/04 03:51:24;;;;;;;5.60;2.42;;;;;;;10.66;58.11;102196.28;5016304;28;20029;-72
2023/06/04 03:53:50;;;;;;;5.03;2.60;;;;;;;10.29;58.89;102194.63;5033657;28;20025;-71
2023/06/04 03:56:15;;;;;;;3.92;2.13;;;;;;;10.27;59.50;102189.38;5016368;28;20032;-71
2023/06/04 03:58:40;;;;;;;6.57;2.58;;;;;;;10.23;59.63;102197.44;5016448;28;20033;-73
2023/06/04 04:01:06;;;;;;;4.22;2.40;;;;;;;10.21;59.92;102189.53;5015849;28;20025;-72
2023/06/04 04:03:34;;;;;;;5.00;2.42;;;;;;;10.23;59.83;102189.50;5016544;28;20025;-71
2023/06/04 04:06:00;;;;;;;5.40;2.83;;;;;;;10.25;59.84;102203.56;5033438;28;20017;-72
2023/06/04 04:08:26;;;;;;;4.13;2.42;;;;;;;10.38;59.80;102196.16;5033666;28;20476;-71
2023/06/04 04:10:51;;;;;;;5.50;2.70;;;;;;;10.28;59.20;102203.47;5033439;28;20112;-71
2023/06/04 04:13:17;;;;;;;4.25;2.60;;;;;;;10.23;59.84;102205.38;5016190;28;20025;-72
2023/06/04 04:15:42;;;;;;;4.68;2.80;;;;;;;10.24;60.96;102215.06;5016330;28;20025;-70
2023/06/04 04:18:10;;;;;;;6.18;3.22;;;;;;;10.10;60.68;102208.31;5016439;28;20075;-71
2023/06/04 04:20:36;;;;;;;6.80;2.95;;;;;;;10.14;60.30;102215.25;5034120;28;20387;-71
2023/06/04 04:23:01;;;;;;;4.07;2.90;;;;;;;10.14;60.55;102215.25;5000297;28;20025;-72
2023/06/04 04:25:27;;;;;;;6.07;2.90;;;;;;;10.45;59.22;102216.25;5015670;28;20057;-70
2023/06/04 04:27:52;;;;;;;4.88;2.90;;;;;;;10.59;59.01;102213.25;5015288;28;20025;-72
2023/06/04 04:30:18;;;;;;;3.53;2.58;;;;;;;10.72;58.63;102211.97;5015367;28;20021;-71
2023/06/04 04:32:48;;;;;;;5.55;3.00;;;;;;;10.69;58.91;102209.44;4999222;28;20112;-71
2023/06/04 04:35:14;;;;;;;5.68;2.90;;;;;;;10.82;58.65;102219.66;5016602;28;20382;-72
2023/06/04 04:37:40;;;;;;;5.40;2.70;;;;;;;10.86;57.82;102216.91;5015380;28;20044;-71
2023/06/04 04:40:09;;;;;;;4.72;2.45;;;;;;;10.89;58.00;102210.63;5015548;28;20029;-72
2023/06/04 04:42:35;;;;;;;6.82;3.42;;;;;;;10.63;58.38;102209.59;5015959;28;20022;-72
2023/06/04 04:45:00;;;;;;;5.38;2.38;;;;;;;10.50;58.92;102209.94;5015343;28;20032;-71
2023/06/04 04:47:25;;;;;;;5.57;3.30;;;;;;;11.30;57.08;102212.94;5015399;28;20029;-71
2023/06/04 04:49:51;;;;;;;5.90;2.72;;;;;;;10.75;58.96;102211.03;5032775;28;20117;-72
2023/06/04 04:52:16;;;;;;;5.40;2.83;;;;;;;11.26;57.56;102212.19;5032961;28;20466;-71
2023/06/04 04:54:42;;;;;;;5.40;3.53;;;;;;;11.20;58.03;102221.19;5033151;28;20028;-71
2023/06/04 04:57:07;;;;;;;8.90;2.88;;;;;;;10.49;60.14;102216.16;5016546;28;20021;-71
2023/06/04 04:59:32;;;;;;;7.28;3.13;;;;;;;10.54;60.47;102217.81;5015338;28;20029;-71
2023/06/04 05:01:58;;;;;;;9.55;3.25;;;;;;;10.85;59.30;102216.91;5014804;28;20075;-71
2023/06/04 05:04:23;;;;;;;5.80;2.80;;;;;;;10.98;59.50;102213.00;5015033;28;20025;-70
2023/06/04 05:06:48;;;;;;;3.40;2.58;;;;;;;11.10;59.72;102209.13;5032659;28;20108;-72
2023/06/04 05:09:15;;;;;;;6.13;3.53;;;;;;;11.13;60.10;102205.53;4998786;28;20034;-71
2023/06/04 05:11:41;;;;;;;6.20;2.83;;;;;;;10.70;61.34;102226.19;5015967;28;20028;-71
2023/06/04 05:14:07;;;;;;;7.93;3.40;;;;;;;10.54;62.39;102215.16;5014896;28;20374;-71
2023/06/04 05:16:35;;;;;;;6.40;2.83;;;;;;;11.25;59.72;102206.91;5015660;28;20113;-71
2023/06/04 05:19:01;;;;;;;7.68;3.42;;;;;;;11.04;60.60;102225.19;5015720;28;20059;-71
2023/06/04 05:21:28;;;;;;;7.22;2.83;;;;;;;10.84;61.75;102217.84;5015588;28;20128;-71
2023/06/04 05:23:54;;;;;;;8.85;3.22;;;;;;;11.54;59.58;102219.25;5016276;28;20021;-73
2023/06/04 05:26:22;;;;;;;5.50;3.17;;;;;;;11.17;60.73;102221.28;5033232;28;20356;-71
2023/06/04 05:28:48;;;;;;;7.00;3.03;;;;;;;11.20;60.84;102215.03;5015903;28;20021;-72
2023/06/04 05:31:15;;;;;;;7.47;3.22;;;;;;;11.02;61.28;102227.03;5014891;28;20359;-72
2023/06/04 05:33:41;;;;;;;8.40;3.25;;;;;;;10.93;61.58;102223.75;5015340;28;20021;-71
2023/06/04 05:36:06;;;;;;;6.65;3.45;;;;;;;11.22;61.27;102218.50;5014721;28;20043;-72
2023/06/04 05:38:32;;;;;;;6.07;3.50;;;;;;;11.82;59.80;102223.69;5014026;28;20041;-72
2023/06/04 05:40:58;;;;;;;6.93;3.05;;;;;;;11.54;61.27;102229.88;4998341;28;20030;-71
2023/06/04 05:43:23;;;;;;;6.57;3.25;;;;;;;11.88;59.89;102228.78;5014920;28;20021;-70
2023/06/04 05:45:49;;;;;;;5.65;3.30;;;;;;;11.75;60.74;102232.75;5014568;28;20029;-72
2023/06/04 05:48:14;;;;;;;9.65;3.85;;;;;;;11.61;61.53;102231.41;4998114;28;20025;-71
2023/06/04 05:50:40;;;;;;;7.82;3.55;;;;;;;11.53;62.06;102230.78;5032104;28;20084;-73
2023/06/04 05:53:05;;;;;;;5.47;3.80;;;;;;;11.59;61.24;102227.94;4998386;28;20025;-72
2023/06/04 05:55:31;;;;;;;5.63;3.22;;;;;;;11.88;61.60;102228.78;5032242;28;20029;-71
2023/06/04 05:57:56;;;;;;;7.75;3.03;;;;;;;12.15;60.11;102218.19;5032090;28;20026;-71
2023/06/04 06:00:22;;;;;;;6.20;3.03;;;;;;;12.58;58.88;102223.75;5014739;28;20079;-72
2023/06/04 06:02:49;;;;;;;8.50;3.40;;;;;;;12.69;57.47;102221.56;5015295;28;20389;-71
2023/06/04 06:05:15;;;;;;;6.93;3.05;;;;;;;12.08;59.92;102236.09;5014354;28;20072;-71
2023/06/04 06:07:41;;;;;;;10.32;3.67;;;;;;;12.08;60.38;102232.59;5032298;28;20112;-71
2023/06/04 06:10:06;;;;;;;7.32;3.00;;;;;;;12.67;58.81;102222.56;4997932;28;20029;-72
2023/06/04 06:12:32;;;;;;;10.77;3.42;;;;;;;12.59;59.57;102240.56;5033993;28;20026;-71
2023/06/04 06:14:57;;;;;;;7.30;3.00;;;;;;;12.33;60.50;102239.69;5036500;28;20029;-71
2023/06/04 06:17:23;;;;;;;4.20;2.80;;;;;;;12.61;59.75;102241.38;5018573;28;20053;-72
2023/06/04 06:19:49;;;;;;;7.95;4.15;;;;;;;13.09;57.30;102235.16;5036571;28;20026;-74
2023/06/04 06:22:15;;;;;;;9.55;4.00;;;;;;;12.69;58.81;102236.66;5002310;28;20037;-74
2023/06/04 06:24:40;;;;;;;7.40;3.70;;;;;;;13.03;57.84;102219.44;5018820;28;20029;-74
2023/06/04 06:27:06;;;;;;;6.00;2.92;;;;;;;12.79;58.65;102238.06;5018395;28;20430;-72
2023/06/04 06:29:31;;;;;;;6.85;2.90;;;;;;;13.51;56.46;102230.06;5001858;28;20026;-71
2023/06/04 06:31:56;;;;;;;6.20;2.80;;;;;;;13.33;56.92;102231.63;5002424;28;20394;-72
2023/06/04 06:34:22;;;;;;;9.45;3.00;;;;;;;13.07;58.28;102236.16;5018593;28;20112;-72
2023/06/04 06:36:47;;;;;;;6.05;3.10;;;;;;;13.38;56.53;102241.16;5036241;28;20024;-74
2023/06/04 06:39:13;;;;;;;7.32;2.72;;;;;;;13.18;57.46;102243.69;5002580;28;20085;-73
2023/06/04 06:41:38;;;;;;;7.95;2.63;;;;;;;13.38;56.61;102245.59;5003010;28;20040;-74
2023/06/04 06:44:04;;;;;;;10.15;3.25;;;;;;;13.34;57.02;102239.53;5019315;28;20037;-72
2023/06/04 06:46:30;;;;;;;9.55;3.17;;;;;;;13.76;54.74;102234.38;5018702;28;20471;-78
2023/06/04 06:48:55;;;;;;;9.00;3.40;;;;;;;13.68;54.73;102248.00;5002476;28;20111;-74
2023/06/04 06:51:20;;;;;;;7.00;2.90;;;;;;;13.48;55.81;102240.81;5018877;28;20026;-73
2023/06/04 06:53:46;;;;;;;9.20;2.95;;;;;;;13.96;53.73;102234.41;5018972;28;20078;-72
2023/06/04 06:56:11;;;;;;;6.25;2.70;;;;;;;13.80;55.16;102234.19;5036654;28;20024;-74
2023/06/04 06:58:36;;;;;;;7.68;2.80;;;;;;;14.35;51.83;102230.09;5019081;28;20030;-72
2023/06/04 07:01:02;;;;;;;7.20;3.20;;;;;;;13.98;52.26;102234.34;5002916;28;20021;-73
2023/06/04 07:03:27;;;;;;;12.68;2.65;;;;;;;14.30;51.51;102245.41;5018936;28;20053;-72
2023/06/04 07:05:54;;;;;;;9.82;2.65;;;;;;;14.16;52.18;102243.38;5018806;28;20132;-73
2023/06/04 07:08:19;;;;;;;6.80;2.60;;;;;;;14.99;49.04;102233.50;5002370;28;20026;-72
2023/06/04 07:10:45;;;;;;;6.68;2.13;;;;;;;14.99;50.12;102237.97;5018115;28;20029;-72
2023/06/04 07:13:11;;;;;;;5.43;2.42;;;;;;;15.11;48.88;102240.06;5018177;28;20108;-73
2023/06/04 07:15:36;;;;;;;4.68;2.67;;;;;;;15.16;49.65;102240.72;5001552;28;20037;-72
2023/06/04 07:18:01;;;;;;;5.28;2.67;;;;;;;15.07;49.13;102233.16;5018152;28;20030;-73
2023/06/04 07:20:27;;;;;;;6.68;2.25;;;;;;;14.81;51.57;102242.34;5001411;28;20025;-74
2023/06/04 07:22:52;;;;;;;5.32;3.03;;;;;;;14.87;49.77;102239.41;5033886;28;20049;-74
2023/06/04 07:25:17;;;;;;;6.05;2.42;;;;;;;15.11;50.52;102236.53;5017018;28;20030;-72
2023/06/04 07:27:43;;;;;;;7.43;3.00;;;;;;;15.60;47.73;102234.19;5000887;28;20029;-73
2023/06/04 07:30:09;;;;;;;6.03;2.45;;;;;;;15.67;48.17;102223.22;5017040;28;20033;-72
2023/06/04 07:32:35;;;;;;;9.10;2.90;;;;;;;15.54;48.37;102233.63;5000667;28;20025;-73
2023/06/04 07:35:00;;;;;;;5.60;2.47;;;;;;;15.29;49.48;102240.13;5017258;28;20052;-73
2023/06/04 07:37:25;;;;;;;5.60;2.50;;;;;;;15.36;49.75;102230.91;5017013;28;20025;-71
2023/06/04 07:39:51;;;;;;;8.02;2.58;;;;;;;15.69;49.02;102232.88;5001094;28;20028;-73
2023/06/04 07:42:16;;;;;;;5.70;2.38;;;;;;;15.68;49.11;102236.50;5034358;28;20021;-75
2023/06/04 07:44:41;;;;;;;10.13;3.25;;;;;;;15.69;48.69;102232.88;5001255;28;20021;-73
2023/06/04 07:47:07;;;;;;;5.55;2.10;;;;;;;15.90;47.55;102238.13;5000555;28;20113;-72
2023/06/04 07:49:32;;;;;;;4.00;2.10;;;;;;;15.85;47.90;102232.97;5035840;28;20052;-72
2023/06/04 07:51:58;;;;;;;8.55;2.50;;;;;;;16.37;46.48;102227.75;5018010;28;20042;-74
2023/06/04 07:54:23;;;;;;;6.57;2.83;;;;;;;16.01;46.95;102216.22;5017222;28;20029;-74
2023/06/04 07:56:49;;;;;;;7.25;2.67;;;;;;;15.94;47.55;102226.34;5001052;28;20029;-74
2023/06/04 07:59:14;;;;;;;6.70;2.40;;;;;;;16.06;46.18;102218.66;5017058;28;20064;-73
2023/06/04 08:01:40;;;;;;;4.80;2.50;;;;;;;16.15;46.32;102229.72;5000778;28;20410;-74
2023/06/04 08:04:05;;;;;;;7.80;2.50;;;;;;;17.03;43.36;102215.34;5016901;28;20030;-75
2023/06/04 08:06:30;;;;;;;4.38;3.03;;;;;;;16.65;44.42;102232.47;5016504;28;20466;-72
2023/06/04 08:08:56;;;;;;;5.65;2.75;;;;;;;16.56;44.12;102228.50;5016668;28;20029;-72
2023/06/04 08:11:22;;;;;;;8.57;2.40;;;;;;;16.53;43.93;102228.66;4999903;28;20437;-72
2023/06/04 08:13:48;;;;;;;7.78;3.10;;;;;;;16.68;43.49;102216.31;5000114;28;20125;-72
2023/06/04 08:16:13;;;;;;;10.35;2.58;;;;;;;16.88;42.91;102233.91;5034062;28;20100;-75
2023/06/04 08:18:39;;;;;;;5.72;2.13;;;;;;;17.00;43.18;102223.53;5034006;28;20055;-71
2023/06/04 08:21:06;;;;;;;3.83;2.03;;;;;;;17.05;43.25;102218.81;5016243;28;20030;-75
2023/06/04 08:23:32;;;;;;;2.85;1.90;;;;;;;17.13;43.03;102224.59;5017065;28;20025;-76
2023/06/04 08:25:58;;;;;;;7.00;2.40;;;;;;;17.53;40.86;102224.16;5016542;28;20029;-74
2023/06/04 08:28:24;;;;;;;5.30;2.10;;;;;;;17.95;40.20;102227.09;5000172;28;20444;-74
2023/06/04 08:30:49;;;;;;;8.82;2.83;;;;;;;18.03;39.70;102219.50;5016386;28;20033;-72
2023/06/04 08:33:14;;;;;;;6.65;2.40;;;;;;;17.45;40.94;102215.69;4999773;28;20044;-73
2023/06/04 08:35:40;;;;;;;3.35;1.90;;;;;;;17.75;39.91;102221.06;5033632;28;20026;-72
2023/06/04 08:38:05;;;;;;;6.03;2.05;;;;;;;17.89;40.32;102224.78;5015432;28;20048;-73
2023/06/04 08:40:31;;;;;;;6.03;2.05;;;;;;;17.96;39.64;102220.78;5015936;28;20028;-73
2023/06/04 08:42:59;;;;;;;5.20;2.13;;;;;;;18.39;36.94;102219.16;5015727;28;20036;-73
2023/06/04 08:45:25;;;;;;;5.88;2.35;;;;;;;17.93;38.08;102215.59;5016693;28;20106;-76
2023/06/04 08:47:51;;;;;;;4.53;1.90;;;;;;;17.99;38.15;102217.91;5015966;28;20032;-74
2023/06/04 08:50:18;;;;;;;4.95;2.20;;;;;;;17.78;36.76;102228.91;5015817;28;20033;-73
2023/06/04 08:52:44;;;;;;;3.53;1.92;;;;;;;18.12;37.26;102227.91;4999418;28;20029;-72
2023/06/04 08:55:13;;;;;;;3.97;2.10;;;;;;;18.89;35.77;102208.91;4999408;28;20489;-72
2023/06/04 08:57:39;;;;;;;11.10;6.18;;;;;;;18.58;37.94;102222.44;5016312;28;20111;-72
2023/06/04 09:00:07;;;;;;;3.58;1.80;;;;;;;18.31;37.91;102220.50;5015742;28;20096;-73
2023/06/04 09:02:35;;;;;;;4.75;2.08;;;;;;;18.29;37.79;102232.28;5015755;28;20386;-74
2023/06/04 09:05:01;;;;;;;4.70;2.00;;;;;;;18.40;37.26;102226.25;5032987;28;20083;-72
2023/06/04 09:07:27;;;;;;;4.03;2.05;;;;;;;18.42;36.37;102227.88;5015737;28;20071;-72
2023/06/04 09:09:52;;;;;;;2.58;1.60;;;;;;;18.73;35.51;102220.59;5015395;28;20029;-73
2023/06/04 09:12:22;;;;;;;4.35;1.80;;;;;;;19.43;33.61;102226.97;5033345;28;20533;-71
2023/06/04 09:14:48;;;;;;;3.65;2.10;;;;;;;18.02;37.41;102225.78;4998908;28;20021;-73
2023/06/04 09:17:14;;;;;;;3.95;2.35;;;;;;;18.47;35.56;102230.25;5016200;28;20027;-73
2023/06/04 09:19:40;;;;;;;4.10;1.80;;;;;;;18.56;37.22;102229.72;4999414;28;20367;-73
2023/06/04 09:22:05;;;;;;;4.05;1.90;;;;;;;18.64;35.40;102222.06;5034151;28;20023;-74
2023/06/04 09:24:39;;;;;;;10.65;2.92;;;;;;;18.51;34.08;102237.16;5017058;28;20429;-72
2023/06/04 09:27:16;;;;;;;3.63;1.67;;;;;;;18.59;33.51;102239.38;5015706;28;20047;-73
2023/06/04 09:30:00;;;;;;;6.30;1.92;;;;;;;18.09;33.83;102231.63;4998910;28;20049;-73
2023/06/04 09:32:27;;;;;;;5.80;1.80;;;;;;;19.35;32.75;102227.44;5034642;28;20057;-70
2023/06/04 09:34:53;;;;;;;4.70;2.00;;;;;;;19.07;33.29;102231.94;5000039;28;20118;-71
2023/06/04 09:37:19;;;;;;;4.93;1.83;;;;;;;18.89;33.53;102231.22;5015785;28;20017;-71
2023/06/04 09:39:57;;;;;;;4.20;2.05;;;;;;;18.94;33.64;102239.00;5015633;28;20057;-71
2023/06/04 09:42:23;;;;;;;2.38;1.70;;;;;;;19.07;31.99;102234.59;5015964;28;20052;-70
2023/06/04 09:44:49;;;;;;;6.22;1.95;;;;;;;19.69;31.83;102240.47;4999770;28;20033;-70
2023/06/04 09:47:15;;;;;;;3.65;1.77;;;;;;;19.05;32.16;102216.88;5033248;28;20040;-71
2023/06/04 09:49:44;;;;;;;4.07;1.90;;;;;;;19.05;32.26;102235.66;4999157;28;20107;-71
2023/06/04 09:52:10;;;;;;;5.38;1.90;;;;;;;19.08;32.60;102214.00;5033473;28;20029;-70
2023/06/04 09:54:41;;;;;;;5.18;1.75;;;;;;;19.94;30.63;102230.78;5014423;28;20117;-69
2023/06/04 09:57:19;;;;;;;6.93;2.05;;;;;;;19.88;31.41;102237.41;5030517;28;20017;-69
2023/06/04 09:59:45;;;;;;;4.90;1.98;;;;;;;18.99;32.38;102215.47;5014869;28;20021;-70
2023/06/04 10:02:21;;;;;;;2.95;1.85;;;;;;;19.52;33.08;102212.94;5015843;28;20054;-70
2023/06/04 10:04:59;;;;;;;3.13;1.73;;;;;;;19.18;32.68;102215.13;5015595;28;20025;-71
2023/06/04 10:07:25;;;;;;;3.40;1.75;;;;;;;19.00;31.79;102219.00;5015876;28;20037;-71
2023/06/04 10:09:52;;;;;;;3.85;1.95;;;;;;;20.03;31.43;102232.84;4999087;28;20454;-71
2023/06/04 10:12:23;;;;;;;6.32;1.77;;;;;;;19.88;31.87;102226.69;4998934;28;20040;-70
2023/06/04 10:14:52;;;;;;;4.13;1.80;;;;;;;19.62;32.15;102223.91;4998911;28;20067;-71
2023/06/04 10:17:22;;;;;;;6.38;2.28;;;;;;;19.42;33.01;102210.94;5015070;28;20021;-71
2023/06/04 10:19:51;;;;;;;6.40;1.95;;;;;;;19.69;31.74;102216.31;5015377;28;20021;-72
2023/06/04 10:22:17;;;;;;;4.65;2.10;;;;;;;19.79;31.70;102217.41;5032976;28;20096;-70
2023/06/04 10:24:43;;;;;;;4.25;2.20;;;;;;;19.47;32.10;102219.53;5015580;28;20546;-69
2023/06/04 10:27:12;;;;;;;5.40;1.95;;;;;;;19.61;31.80;102205.22;5015255;28;20033;-70
2023/06/04 10:29:38;;;;;;;4.60;1.75;;;;;;;19.92;31.75;102196.00;5015299;28;20060;-71
2023/06/04 10:32:04;;;;;;;3.78;2.13;;;;;;;20.85;29.87;102210.22;5014911;28;20053;-70
2023/06/04 10:34:30;;;;;;;4.30;2.13;;;;;;;20.83;30.15;102199.53;5015358;28;20096;-70
2023/06/04 10:36:55;;;;;;;4.53;2.05;;;;;;;20.52;30.96;102204.41;5015078;28;20022;-70
2023/06/04 10:39:28;;;;;;;3.08;1.88;;;;;;;20.84;29.33;102195.03;5015197;28;20056;-71
2023/06/04 10:42:05;;;;;;;3.83;1.88;;;;;;;20.62;30.29;102220.72;5015087;28;20034;-72
2023/06/04 10:44:30;;;;;;;3.20;1.75;;;;;;;20.20;30.69;102185.16;5014948;28;20025;-72
2023/06/04 10:46:57;;;;;;;5.45;1.95;;;;;;;21.27;29.74;102208.03;5015451;28;20080;-70
2023/06/04 10:49:27;;;;;;;3.25;1.67;;;;;;;20.67;30.61;102180.94;4998917;28;20124;-73
2023/06/04 10:51:53;;;;;;;3.92;1.80;;;;;;;20.65;30.58;102203.53;5015345;28;20087;-72
2023/06/04 10:54:26;;;;;;;2.10;1.70;;;;;;;20.38;30.48;102216.13;4992553;28;20029;-71
2023/06/04 10:57:11;;;;;;;4.00;2.42;;;;;;;21.05;30.47;102205.19;5006302;28;20106;-70
2023/06/04 10:59:36;;;;;;;3.10;1.80;;;;;;;21.09;29.96;102204.84;5005294;28;20377;-70
2023/06/04 11:02:06;;;;;;;3.72;1.73;;;;;;;20.90;29.87;102205.34;5000125;28;20025;-72
2023/06/04 11:04:31;;;;;;;3.60;2.10;;;;;;;20.56;30.52;102221.16;5036253;28;20112;-71
2023/06/04 11:07:02;;;;;;;6.13;2.00;;;;;;;21.38;28.82;102212.63;5036173;28;20108;-71
2023/06/04 11:09:27;;;;;;;4.57;2.35;;;;;;;21.16;29.22;102205.28;5035827;28;20363;-71
2023/06/04 11:11:59;;;;;;;4.38;2.10;;;;;;;20.82;29.84;102213.09;5018428;28;20032;-67
2023/06/04 11:14:24;;;;;;;4.00;2.15;;;;;;;20.46;31.14;102217.41;5035928;28;20021;-67
2023/06/04 11:16:49;;;;;;;8.55;1.95;;;;;;;20.53;31.06;102218.69;5035726;28;20437;-65
2023/06/04 11:19:15;;;;;;;6.03;2.35;;;;;;;21.05;29.28;102187.22;5018086;28;20419;-67
2023/06/04 11:21:40;;;;;;;3.78;1.73;;;;;;;21.09;30.10;102198.63;5018309;28;20106;-67